Time;durP1;ratioP1;P1;durP2;ratioP2;P2;SDS_P1;SDS_P2;PMS_P1;PMS_P2;Temp;Humidity;BMP_temperature;BMP_pressure;BME280_temperature;BME280_humidity;BME280_pressure;Samples;Min_cycle;Max_cycle;Signal;HPM_P1;HPM_P2
2023/03/20 00:02:32;;;;;;;12.23;11.07;;;22.90;70.30;;;;;;6076178;28;88033;-67
2023/03/20 00:05:35;;;;;;;12.55;11.35;;;22.90;70.30;;;;;;6072108;28;89101;-68
2023/03/20 00:08:39;;;;;;;13.43;12.15;;;22.90;70.30;;;;;;6063334;28;88368;-67
2023/03/20 00:11:48;;;;;;;13.43;12.13;;;22.90;70.30;;;;;;6069787;28;89065;-68
2023/03/20 00:14:50;;;;;;;13.52;12.30;;;22.90;70.40;;;;;;6075297;28;89153;-68
2023/03/20 00:17:52;;;;;;;13.65;12.35;;;22.90;70.40;;;;;;6068375;28;90183;-67
2023/03/20 00:20:54;;;;;;;14.20;12.80;;;22.90;70.40;;;;;;6059660;28;89084;-68
2023/03/20 00:23:59;;;;;;;12.95;11.75;;;22.90;70.50;;;;;;6068582;28;89468;-68
2023/03/20 00:27:01;;;;;;;13.95;12.55;;;22.90;70.40;;;;;;6066409;28;89154;-69
2023/03/20 00:30:05;;;;;;;13.45;12.15;;;22.80;70.40;;;;;;6069056;28;89519;-69
2023/03/20 00:33:10;;;;;;;14.38;12.98;;;22.80;70.40;;;;;;6062739;28;89013;-69
2023/03/20 00:36:12;;;;;;;14.55;13.15;;;22.90;70.60;;;;;;6071869;28;89132;-68
2023/03/20 00:39:15;;;;;;;13.95;12.65;;;22.80;70.50;;;;;;6068036;28;88294;-68
2023/03/20 00:42:21;;;;;;;14.63;13.27;;;22.90;70.60;;;;;;6061417;28;89159;-69
2023/03/20 00:45:23;;;;;;;14.30;12.90;;;22.80;70.50;;;;;;6061365;28;88175;-69
2023/03/20 00:48:25;;;;;;;13.30;12.00;;;22.80;70.60;;;;;;6074682;28;90069;-69
2023/03/20 00:51:27;;;;;;;14.25;12.85;;;22.80;70.50;;;;;;6071777;28;88991;-69
2023/03/20 00:54:31;;;;;;;13.52;12.23;;;22.80;70.50;;;;;;6067339;28;89224;-69
2023/03/20 00:57:39;;;;;;;14.65;13.15;;;22.80;70.50;;;;;;6066206;28;89817;-68
2023/03/20 01:00:42;;;;;;;13.98;12.57;;;22.80;70.50;;;;;;6067767;28;89638;-68
2023/03/20 01:03:44;;;;;;;14.32;12.93;;;22.80;70.50;;;;;;6077439;28;88953;-69
2023/03/20 01:06:47;;;;;;;14.35;12.95;;;22.80;70.50;;;;;;6073484;28;89089;-69
2023/03/20 01:09:51;;;;;;;14.30;12.90;;;22.80;70.50;;;;;;6067806;28;88392;-68
2023/03/20 01:12:53;;;;;;;14.52;13.10;;;22.80;70.50;;;;;;6069134;28;90914;-68
2023/03/20 01:15:57;;;;;;;14.07;12.57;;;22.80;70.40;;;;;;6080139;28;90291;-68
2023/03/20 01:18:59;;;;;;;14.45;12.98;;;22.80;70.50;;;;;;6061012;28;90330;-69
2023/03/20 01:22:01;;;;;;;14.00;12.68;;;22.80;70.50;;;;;;6059342;28;88489;-69
2023/03/20 01:25:05;;;;;;;14.55;13.15;;;22.70;70.50;;;;;;6068504;28;89112;-69
2023/03/20 01:28:17;;;;;;;13.35;12.05;;;22.70;70.30;;;;;;6070637;28;89062;-69
2023/03/20 01:31:19;;;;;;;13.80;12.48;;;22.80;70.50;;;;;;6069543;28;88994;-68
2023/03/20 01:34:22;;;;;;;14.02;12.63;;;22.70;70.40;;;;;;6067714;28;90280;-69
2023/03/20 01:37:26;;;;;;;14.80;13.25;;;22.70;70.40;;;;;;6062572;28;87985;-68
2023/03/20 01:40:34;;;;;;;14.38;13.05;;;22.70;70.30;;;;;;6066379;28;88684;-68
2023/03/20 01:43:36;;;;;;;14.38;13.02;;;22.70;70.50;;;;;;6071339;28;89169;-69
2023/03/20 01:46:39;;;;;;;13.93;12.63;;;22.70;70.50;;;;;;6077542;28;89076;-69
2023/03/20 01:50:21;;;;;;;14.30;12.90;;;22.70;70.50;;;;;;6072887;28;90195;-69
2023/03/20 01:53:25;;;;;;;13.90;12.60;;;22.70;70.40;;;;;;6060792;28;89434;-68
2023/03/20 01:56:32;;;;;;;14.10;12.63;;;22.70;70.40;;;;;;6067874;28;89133;-69
2023/03/20 01:59:37;;;;;;;14.18;12.77;;;22.70;71.30;;;;;;6072550;28;88346;-68
2023/03/20 02:02:40;;;;;;;13.70;12.40;;;22.70;70.40;;;;;;6059901;28;88355;-69
2023/03/20 02:05:44;;;;;;;14.00;12.60;;;22.70;70.40;;;;;;6061001;28;89225;-68
2023/03/20 02:08:48;;;;;;;13.73;12.43;;;22.70;70.50;;;;;;6068026;28;89093;-69
2023/03/20 02:11:53;;;;;;;13.85;12.55;;;22.70;70.50;;;;;;6067782;28;88359;-69
2023/03/20 02:14:56;;;;;;;14.80;13.30;;;22.60;70.40;;;;;;6069690;28;89089;-69
2023/03/20 02:17:58;;;;;;;12.50;11.30;;;22.70;70.50;;;;;;6072578;28;89077;-69
2023/03/20 02:21:46;;;;;;;14.00;12.63;;;22.60;70.40;;;;;;6080960;28;90200;-69
2023/03/20 02:25:36;;;;;;;13.43;12.13;;;22.70;70.50;;;;;;6057073;28;92821;-69
2023/03/20 02:29:07;;;;;;;13.15;11.93;;;22.60;70.40;;;;;;6071317;28;89352;-69
2023/03/20 02:32:34;;;;;;;13.95;12.65;;;22.60;70.30;;;;;;6063787;28;89354;-69
2023/03/20 02:36:15;;;;;;;12.63;11.32;;;22.60;70.40;;;;;;6061836;28;89304;-69
2023/03/20 02:39:48;;;;;;;12.27;11.10;;;22.60;70.30;;;;;;6060411;28;90120;-69
2023/03/20 02:42:58;;;;;;;13.02;11.73;;;22.60;70.40;;;;;;6067596;28;89103;-69
2023/03/20 02:46:10;;;;;;;13.50;12.15;;;22.60;70.50;;;;;;6049585;28;88489;-69
2023/03/20 02:49:24;;;;;;;13.88;12.52;;;22.60;70.50;;;;;;6058636;28;89499;-68
2023/03/20 02:52:33;;;;;;;13.32;11.80;;;22.60;70.50;;;;;;6041444;28;89458;-69
2023/03/20 02:55:44;;;;;;;12.82;11.52;;;22.60;70.50;;;;;;6060666;28;90051;-69
2023/03/20 02:58:51;;;;;;;12.50;11.30;;;22.60;70.50;;;;;;6062105;28;88015;-69
2023/03/20 03:01:58;;;;;;;12.55;11.35;;;22.60;70.50;;;;;;6071947;28;89160;-70
2023/03/20 03:05:04;;;;;;;13.00;11.70;;;22.60;70.50;;;;;;6072461;28;88261;-69
2023/03/20 03:08:09;;;;;;;12.88;11.68;;;22.60;70.40;;;;;;6072311;28;89199;-69
2023/03/20 03:11:13;;;;;;;12.77;11.57;;;22.60;70.50;;;;;;6072135;28;89093;-70
2023/03/20 03:14:19;;;;;;;11.95;10.85;;;22.60;70.50;;;;;;6060819;28;89065;-69
2023/03/20 03:17:25;;;;;;;11.93;10.82;;;22.50;70.40;;;;;;6061610;28;88692;-70
2023/03/20 03:20:31;;;;;;;12.35;11.15;;;22.60;70.60;;;;;;6060269;28;88044;-70
2023/03/20 03:23:41;;;;;;;11.95;10.85;;;22.50;70.40;;;;;;6053143;28;89044;-69
2023/03/20 03:26:45;;;;;;;12.18;11.07;;;22.50;70.50;;;;;;6060191;28;90105;-70
2023/03/20 03:29:52;;;;;;;11.15;10.05;;;22.50;70.50;;;;;;6069573;28;89111;-69
2023/03/20 03:33:09;;;;;;;11.60;10.50;;;22.50;70.50;;;;;;6058052;28;89098;-69
2023/03/20 03:36:17;;;;;;;11.57;10.48;;;22.50;70.50;;;;;;6062263;28;89095;-69
2023/03/20 03:39:28;;;;;;;11.32;10.32;;;22.50;70.50;;;;;;6064753;28;89467;-69
2023/03/20 03:42:36;;;;;;;11.30;10.30;;;22.50;70.50;;;;;;6059848;28;89045;-70
2023/03/20 03:45:44;;;;;;;11.63;10.52;;;22.50;70.50;;;;;;6073463;28;89387;-70
2023/03/20 03:48:52;;;;;;;11.85;10.65;;;22.50;70.50;;;;;;6069330;28;88324;-69
2023/03/20 03:51:58;;;;;;;11.65;10.52;;;22.50;70.50;;;;;;6063901;28;89504;-69
2023/03/20 03:55:04;;;;;;;11.35;10.25;;;22.50;70.50;;;;;;6064817;28;89156;-69
2023/03/20 03:58:12;;;;;;;11.32;10.23;;;22.50;70.50;;;;;;6072201;28;90282;-69
2023/03/20 04:01:16;;;;;;;10.95;9.95;;;22.50;70.60;;;;;;6053849;28;89111;-69
2023/03/20 04:04:20;;;;;;;11.02;10.02;;;22.50;70.60;;;;;;6065240;28;89546;-70
2023/03/20 04:07:27;;;;;;;11.07;9.90;;;22.50;70.60;;;;;;6063016;28;89315;-69
2023/03/20 04:10:30;;;;;;;10.80;9.80;;;22.50;70.60;;;;;;6063461;28;89181;-70
2023/03/20 04:13:33;;;;;;;10.43;9.52;;;22.40;70.60;;;;;;6074483;28;89042;-70
2023/03/20 04:16:35;;;;;;;10.73;9.63;;;22.40;70.60;;;;;;6064143;28;88006;-69
2023/03/20 04:19:37;;;;;;;10.32;9.32;;;22.50;70.60;;;;;;6064170;28;88623;-69
2023/03/20 04:22:39;;;;;;;11.23;10.13;;;22.40;70.50;;;;;;6060639;28;88145;-69
2023/03/20 04:25:41;;;;;;;10.30;9.30;;;22.50;70.60;;;;;;6065662;28;89121;-69
2023/03/20 04:28:45;;;;;;;10.32;9.32;;;22.40;70.60;;;;;;6064370;28;91353;-69
2023/03/20 04:31:47;;;;;;;10.10;9.10;;;22.40;70.50;;;;;;6066872;28;89082;-68
2023/03/20 04:34:49;;;;;;;11.02;9.55;;;22.40;70.50;;;;;;6070143;28;89084;-69
2023/03/20 04:37:51;;;;;;;10.05;9.15;;;22.40;70.20;;;;;;6077562;28;89055;-68
2023/03/20 04:40:53;;;;;;;9.82;8.93;;;22.40;70.20;;;;;;6051843;28;89189;-69
2023/03/20 04:43:56;;;;;;;10.43;9.45;;;22.40;70.30;;;;;;6061850;28;89316;-69
2023/03/20 04:46:58;;;;;;;9.60;8.70;;;22.40;70.10;;;;;;6063319;28;89072;-68
2023/03/20 04:50:00;;;;;;;9.35;8.45;;;22.50;70.00;;;;;;6064080;28;88395;-68
2023/03/20 04:53:02;;;;;;;9.75;8.85;;;22.50;70.00;;;;;;6067281;28;89093;-68
2023/03/20 04:56:05;;;;;;;9.18;8.27;;;22.50;69.90;;;;;;6070776;28;89034;-69
2023/03/20 04:59:08;;;;;;;9.15;8.25;;;22.50;69.80;;;;;;6061776;28;89864;-68
2023/03/20 05:02:13;;;;;;;9.45;8.55;;;22.50;69.80;;;;;;6062667;28;89438;-68
2023/03/20 05:05:16;;;;;;;9.20;8.40;;;22.50;69.80;;;;;;6054183;28;89110;-68
2023/03/20 05:08:18;;;;;;;9.05;8.25;;;22.60;69.80;;;;;;6083801;28;88275;-69
2023/03/20 05:11:20;;;;;;;9.13;8.30;;;22.50;69.60;;;;;;6065367;28;89670;-68
2023/03/20 05:14:24;;;;;;;8.85;7.95;;;22.60;69.70;;;;;;6051191;28;89108;-69
2023/03/20 05:17:26;;;;;;;9.13;8.23;;;22.60;69.70;;;;;;6063020;28;91841;-68
2023/03/20 05:20:28;;;;;;;8.30;7.50;;;22.60;69.70;;;;;;6079131;28;88357;-69
2023/03/20 05:23:30;;;;;;;8.15;7.45;;;22.60;69.60;;;;;;6076796;28;88010;-69
2023/03/20 05:26:32;;;;;;;7.53;6.93;;;22.60;69.60;;;;;;6065305;28;89358;-69
2023/03/20 05:29:35;;;;;;;8.32;7.53;;;22.60;69.60;;;;;;6061543;28;90384;-70
2023/03/20 05:32:37;;;;;;;8.63;7.82;;;22.60;69.50;;;;;;6066655;28;89074;-69
2023/03/20 05:35:40;;;;;;;7.75;7.05;;;22.60;69.50;;;;;;6063005;28;89083;-69
2023/03/20 05:38:42;;;;;;;7.82;7.13;;;22.70;69.50;;;;;;6062655;28;89305;-69
2023/03/20 05:41:44;;;;;;;7.80;7.10;;;22.70;69.40;;;;;;6069572;28;89455;-68
2023/03/20 05:44:47;;;;;;;8.30;7.50;;;22.70;69.50;;;;;;6067625;28;89412;-69
2023/03/20 05:47:49;;;;;;;7.72;7.03;;;22.70;69.40;;;;;;6066392;28;89399;-69
2023/03/20 05:50:51;;;;;;;7.47;6.80;;;22.70;69.50;;;;;;6063717;28;88240;-69
2023/03/20 05:53:54;;;;;;;7.25;6.57;;;22.70;69.40;;;;;;6062400;28;89202;-69
2023/03/20 05:56:56;;;;;;;7.25;6.65;;;22.70;69.50;;;;;;6063906;28;88920;-69
2023/03/20 05:59:59;;;;;;;7.47;6.78;;;22.70;69.40;;;;;;6061084;28;89902;-68
2023/03/20 06:03:01;;;;;;;7.22;6.53;;;22.70;69.40;;;;;;6062737;28;89467;-69
2023/03/20 06:06:03;;;;;;;7.90;6.93;;;22.70;69.40;;;;;;6062191;28;89571;-69
2023/03/20 06:09:06;;;;;;;7.20;6.50;;;22.70;69.40;;;;;;6073655;28;89110;-69
2023/03/20 06:12:08;;;;;;;6.70;6.10;;;22.70;69.40;;;;;;6058693;28;89199;-70
2023/03/20 06:15:12;;;;;;;7.07;6.38;;;22.70;69.30;;;;;;6052411;28;89145;-68
2023/03/20 06:18:14;;;;;;;6.68;6.07;;;22.80;69.40;;;;;;6062946;28;89107;-68
2023/03/20 06:21:16;;;;;;;6.65;6.05;;;22.80;69.60;;;;;;6053913;28;87245;-68
2023/03/20 06:24:18;;;;;;;7.40;6.55;;;22.80;69.60;;;;;;6043549;28;89081;-67
2023/03/20 06:27:20;;;;;;;7.05;6.35;;;22.80;69.60;;;;;;6063838;28;88242;-66
2023/03/20 06:30:24;;;;;;;6.07;5.47;;;22.80;69.60;;;;;;6071010;28;90041;-67
2023/03/20 06:33:26;;;;;;;6.38;5.78;;;22.90;69.70;;;;;;6060280;28;88304;-67
2023/03/20 06:36:28;;;;;;;5.80;5.30;;;22.90;69.70;;;;;;6069034;28;90690;-67
2023/03/20 06:39:30;;;;;;;6.75;6.10;;;22.90;69.70;;;;;;6055880;28;89196;-68
2023/03/20 06:42:32;;;;;;;6.15;5.60;;;22.90;69.60;;;;;;6061054;28;89226;-68
2023/03/20 06:45:36;;;;;;;5.93;5.43;;;22.90;69.50;;;;;;6065071;28;89505;-69
2023/03/20 06:48:38;;;;;;;6.00;5.50;;;23.00;69.50;;;;;;6058634;28;89063;-68
2023/03/20 06:51:40;;;;;;;6.05;5.53;;;22.90;69.40;;;;;;6065765;28;88316;-68
2023/03/20 06:54:42;;;;;;;6.13;5.53;;;23.00;69.40;;;;;;6061847;28;89096;-68
2023/03/20 06:57:44;;;;;;;6.47;5.80;;;23.00;69.50;;;;;;6061639;28;89051;-68
2023/03/20 07:00:48;;;;;;;6.32;5.72;;;23.00;69.50;;;;;;6059691;28;89980;-67
2023/03/20 07:03:50;;;;;;;5.90;5.38;;;23.00;69.40;;;;;;6056559;28;88379;-68
2023/03/20 07:06:52;;;;;;;5.60;5.10;;;23.00;69.40;;;;;;6061761;28;88142;-68
2023/03/20 07:09:54;;;;;;;5.95;5.45;;;23.00;69.40;;;;;;6064049;28;89327;-68
2023/03/20 07:12:56;;;;;;;5.53;5.03;;;23.00;69.40;;;;;;6067875;28;90162;-68
2023/03/20 07:16:01;;;;;;;5.95;5.35;;;23.00;70.30;;;;;;6060090;28;89188;-68
2023/03/20 07:19:03;;;;;;;5.45;4.93;;;23.00;69.40;;;;;;6060165;28;87999;-68
2023/03/20 07:22:07;;;;;;;5.10;4.70;;;23.00;69.40;;;;;;6060604;28;87276;-70
2023/03/20 07:25:10;;;;;;;5.40;4.90;;;23.00;69.40;;;;;;6060959;28;89043;-68
2023/03/20 07:28:12;;;;;;;5.57;4.97;;;23.00;69.40;;;;;;6060943;28;89172;-68
2023/03/20 07:31:21;;;;;;;4.78;4.38;;;23.00;69.40;;;;;;6059584;28;89813;-68
2023/03/20 07:34:23;;;;;;;5.45;4.95;;;23.00;69.40;;;;;;6059663;28;89019;-68
2023/03/20 07:37:25;;;;;;;5.18;4.75;;;23.00;69.40;;;;;;6059755;28;89101;-70
2023/03/20 07:40:28;;;;;;;6.03;4.88;;;23.00;69.60;;;;;;6059044;28;89221;-68
2023/03/20 07:43:30;;;;;;;6.20;4.85;;;23.00;70.50;;;;;;6047783;28;89373;-67
2023/03/20 07:46:33;;;;;;;5.72;4.80;;;23.00;70.40;;;;;;6062921;28;89014;-68
2023/03/20 07:49:35;;;;;;;4.93;4.50;;;23.10;70.20;;;;;;6061502;28;89344;-68
2023/03/20 07:52:37;;;;;;;5.07;4.60;;;23.10;70.10;;;;;;6073368;28;88371;-68
2023/03/20 07:55:40;;;;;;;4.75;4.35;;;23.10;70.10;;;;;;6065902;28;90718;-68
2023/03/20 07:58:42;;;;;;;5.65;4.65;;;23.10;70.10;;;;;;6060544;28;89137;-68
2023/03/20 08:01:45;;;;;;;5.47;4.60;;;23.10;70.00;;;;;;6058907;28;90180;-68
2023/03/20 08:04:47;;;;;;;5.57;4.57;;;23.10;70.10;;;;;;6060886;28;89111;-68
2023/03/20 08:07:49;;;;;;;5.25;4.75;;;23.10;70.10;;;;;;6072386;28;89031;-67
2023/03/20 08:10:51;;;;;;;6.18;4.88;;;23.10;70.10;;;;;;6057941;28;89064;-68
2023/03/20 08:13:53;;;;;;;7.47;5.03;;;23.20;70.20;;;;;;6057839;28;88003;-67
2023/03/20 08:16:57;;;;;;;6.93;5.32;;;23.10;70.10;;;;;;6060591;28;88302;-69
2023/03/20 08:19:59;;;;;;;7.82;5.38;;;23.20;70.20;;;;;;6061064;28;89511;-68
2023/03/20 08:23:01;;;;;;;7.65;5.35;;;23.20;70.30;;;;;;6067413;28;87351;-68
2023/03/20 08:26:03;;;;;;;8.10;5.38;;;23.20;70.20;;;;;;6060281;28;89115;-68
2023/03/20 08:29:06;;;;;;;8.65;4.90;;;23.20;70.20;;;;;;6068385;28;89065;-67
2023/03/20 08:32:09;;;;;;;7.05;5.07;;;23.20;70.10;;;;;;6063191;28;90038;-68
2023/03/20 08:35:11;;;;;;;6.60;4.88;;;23.20;70.10;;;;;;6063015;28;89341;-67
2023/03/20 08:38:14;;;;;;;7.63;5.18;;;23.20;70.20;;;;;;6062493;28;89343;-67
2023/03/20 08:41:16;;;;;;;8.43;5.55;;;23.20;70.20;;;;;;6063965;28;89105;-68
2023/03/20 08:44:18;;;;;;;10.65;6.22;;;23.30;70.40;;;;;;6062737;28;89241;-68
2023/03/20 08:47:22;;;;;;;10.25;5.70;;;23.20;70.60;;;;;;6058728;28;89169;-68
2023/03/20 08:50:24;;;;;;;8.95;5.70;;;23.20;70.80;;;;;;6063611;28;89055;-68
2023/03/20 08:53:26;;;;;;;9.88;6.10;;;23.20;71.10;;;;;;6062628;28;88373;-68
2023/03/20 08:56:28;;;;;;;9.60;5.60;;;23.20;71.10;;;;;;6065548;28;89654;-68
2023/03/20 08:59:31;;;;;;;8.43;5.70;;;23.20;71.20;;;;;;6076653;28;89387;-68
2023/03/20 09:02:35;;;;;;;8.63;5.40;;;23.20;71.00;;;;;;6062321;28;89819;-68
2023/03/20 09:05:37;;;;;;;7.63;5.70;;;23.20;71.00;;;;;;6063018;28;89101;-68
2023/03/20 09:08:39;;;;;;;9.43;5.60;;;23.20;71.00;;;;;;6063659;28;89061;-69
2023/03/20 09:11:42;;;;;;;8.02;5.35;;;23.20;71.10;;;;;;6063832;28;89237;-68
2023/03/20 09:14:44;;;;;;;7.45;5.05;;;23.20;71.10;;;;;;6062214;28;89502;-68
2023/03/20 09:17:47;;;;;;;7.88;5.05;;;23.20;71.10;;;;;;6066455;28;87944;-68
2023/03/20 09:20:49;;;;;;;7.95;5.43;;;23.20;71.10;;;;;;6066519;28;89570;-68
2023/03/20 09:23:51;;;;;;;6.95;4.68;;;23.20;71.00;;;;;;6074249;28;88717;-67
2023/03/20 09:26:54;;;;;;;8.00;5.22;;;23.20;70.90;;;;;;6084154;28;89085;-66
2023/03/20 09:29:56;;;;;;;8.63;4.90;;;23.30;79.30;;;;;;6063270;28;88894;-67
2023/03/20 09:32:59;;;;;;;7.03;4.75;;;23.30;77.70;;;;;;6062776;28;89989;-66
2023/03/20 09:36:01;;;;;;;6.78;4.70;;;23.40;76.50;;;;;;6067672;28;89399;-68
2023/03/20 09:39:04;;;;;;;6.20;4.47;;;23.50;75.60;;;;;;6061509;28;89120;-67
2023/03/20 09:42:17;;;;;;;6.35;4.90;;;23.50;74.70;;;;;;6066158;28;88918;-67
2023/03/20 09:45:30;;;;;;;5.18;4.20;;;23.60;74.20;;;;;;6059598;28;89188;-67
2023/03/20 09:48:39;;;;;;;5.88;4.88;;;23.60;73.60;;;;;;6060799;28;89443;-67
2023/03/20 09:51:45;;;;;;;5.38;4.43;;;23.60;73.30;;;;;;6060279;28;89145;-67
2023/03/20 09:54:51;;;;;;;6.45;4.40;;;23.60;73.10;;;;;;6074998;28;88333;-67
2023/03/20 09:57:57;;;;;;;4.97;4.20;;;23.60;72.80;;;;;;6065104;28;89033;-67
2023/03/20 10:01:01;;;;;;;4.60;4.03;;;23.60;72.80;;;;;;6061901;28;89144;-67
2023/03/20 10:04:09;;;;;;;4.45;4.05;;;23.60;72.70;;;;;;6060574;28;90463;-67
2023/03/20 10:07:17;;;;;;;6.80;4.47;;;23.60;72.50;;;;;;6063069;28;89469;-67
2023/03/20 10:10:20;;;;;;;5.10;4.00;;;23.60;72.20;;;;;;6064520;28;89081;-67
2023/03/20 10:13:48;;;;;;;6.97;4.47;;;23.60;71.60;;;;;;6061364;28;89142;-67
2023/03/20 10:17:03;;;;;;;6.05;4.85;;;23.60;71.50;;;;;;6058595;28;89169;-67
2023/03/20 10:20:13;;;;;;;6.28;4.35;;;23.60;71.30;;;;;;6059332;28;89955;-67
2023/03/20 10:23:25;;;;;;;5.13;4.22;;;23.50;71.20;;;;;;6057182;28;89607;-67
2023/03/20 10:26:31;;;;;;;5.53;4.10;;;23.60;71.20;;;;;;6058074;28;88434;-68
2023/03/20 10:29:44;;;;;;;5.13;4.00;;;23.50;71.20;;;;;;6059721;28;89562;-67
2023/03/20 10:32:52;;;;;;;4.70;4.18;;;23.50;71.20;;;;;;6062163;28;89090;-67
2023/03/20 10:36:07;;;;;;;5.18;4.25;;;23.60;71.10;;;;;;6061185;28;90123;-67
2023/03/20 10:39:15;;;;;;;5.20;4.40;;;23.50;71.00;;;;;;6056143;28;88019;-67
2023/03/20 10:42:21;;;;;;;6.43;5.10;;;23.60;71.00;;;;;;6061562;28;88077;-67
2023/03/20 10:45:32;;;;;;;6.07;5.07;;;23.60;71.00;;;;;;6060083;28;89073;-68
2023/03/20 10:48:39;;;;;;;5.72;4.78;;;23.60;70.80;;;;;;6061930;28;89061;-67
2023/03/20 10:51:48;;;;;;;6.03;5.15;;;23.60;70.80;;;;;;6071530;28;88120;-66
2023/03/20 10:54:55;;;;;;;5.45;4.90;;;23.60;70.80;;;;;;6054936;28;89071;-67
2023/03/20 10:58:04;;;;;;;6.45;5.10;;;23.60;70.80;;;;;;6055534;28;87395;-66
2023/03/20 11:01:07;;;;;;;6.53;5.78;;;23.50;70.70;;;;;;6062411;28;89051;-65
2023/03/20 11:04:09;;;;;;;6.00;5.05;;;23.60;70.90;;;;;;6063618;28;89041;-67
2023/03/20 11:07:21;;;;;;;6.22;5.20;;;23.60;70.90;;;;;;6062003;28;88939;-67
2023/03/20 11:10:27;;;;;;;6.30;5.38;;;23.60;70.90;;;;;;6066630;28;89204;-66
2023/03/20 11:13:32;;;;;;;5.80;5.20;;;23.60;71.00;;;;;;6066117;28;89451;-66
2023/03/20 11:16:37;;;;;;;6.57;5.70;;;23.60;71.00;;;;;;6061084;28;88159;-67
2023/03/20 11:19:41;;;;;;;6.10;5.50;;;23.60;71.00;;;;;;6059985;28;89028;-66
2023/03/20 11:22:46;;;;;;;6.30;5.70;;;23.60;71.00;;;;;;6072406;28;89099;-66
2023/03/20 11:25:52;;;;;;;7.38;6.43;;;23.60;71.00;;;;;;6063040;28;89078;-66
2023/03/20 11:28:57;;;;;;;8.02;6.43;;;23.60;71.00;;;;;;6070208;28;87551;-66
2023/03/20 11:32:08;;;;;;;7.20;6.03;;;23.60;71.00;;;;;;6054293;28;89111;-66
2023/03/20 11:35:18;;;;;;;6.80;6.10;;;23.60;71.00;;;;;;6071798;28;89163;-67
2023/03/20 11:38:22;;;;;;;8.18;6.45;;;23.60;71.00;;;;;;6049480;28;90028;-66
2023/03/20 11:41:27;;;;;;;7.72;6.60;;;23.60;71.80;;;;;;6060381;28;89213;-66
2023/03/20 11:44:31;;;;;;;7.18;6.32;;;23.60;71.00;;;;;;6082711;28;88931;-67
2023/03/20 11:47:35;;;;;;;7.43;6.72;;;23.60;71.00;;;;;;6075176;28;89029;-67
2023/03/20 11:50:42;;;;;;;7.68;6.97;;;23.60;71.00;;;;;;6060579;28;89192;-67
2023/03/20 11:54:00;;;;;;;6.78;6.18;;;23.60;71.00;;;;;;6061285;28;89366;-66
2023/03/20 11:57:02;;;;;;;7.43;6.72;;;23.60;71.00;;;;;;6061139;28;89112;-66
2023/03/20 12:00:16;;;;;;;8.10;6.85;;;23.60;71.00;;;;;;6068356;28;88351;-67
2023/03/20 12:03:43;;;;;;;7.68;6.97;;;23.60;71.00;;;;;;6069230;28;89056;-67
2023/03/20 12:06:51;;;;;;;8.25;7.45;;;23.60;71.00;;;;;;6050442;28;88988;-67
2023/03/20 12:09:58;;;;;;;7.85;7.05;;;23.60;71.00;;;;;;6062967;28;90967;-67
2023/03/20 12:13:04;;;;;;;7.88;7.10;;;23.60;71.00;;;;;;6070302;28;89022;-67
2023/03/20 12:16:11;;;;;;;8.18;7.38;;;23.60;71.10;;;;;;6064780;28;89175;-67
2023/03/20 12:19:18;;;;;;;8.30;7.50;;;23.60;71.10;;;;;;6067403;28;89169;-67
2023/03/20 12:22:24;;;;;;;9.55;8.07;;;23.60;71.10;;;;;;6082013;28;89100;-68
2023/03/20 12:25:32;;;;;;;8.90;8.10;;;23.60;71.50;;;;;;6086491;28;88314;-67
2023/03/20 12:28:41;;;;;;;9.70;8.80;;;23.60;71.10;;;;;;6052817;28;89283;-67
2023/03/20 12:31:49;;;;;;;10.18;9.27;;;23.70;71.10;;;;;;6062557;28;88409;-67
2023/03/20 12:34:56;;;;;;;11.95;10.75;;;23.60;71.50;;;;;;6063922;28;89061;-68
2023/03/20 12:37:59;;;;;;;12.50;10.05;;;23.70;72.50;;;;;;6052914;28;89113;-66
2023/03/20 12:41:12;;;;;;;16.08;12.43;;;23.70;74.90;;;;;;6052466;28;90555;-65
2023/03/20 12:44:27;;;;;;;15.02;12.20;;;23.70;76.40;;;;;;6069699;28;88076;-65
2023/03/20 12:47:51;;;;;;;13.95;12.35;;;24.00;74.20;;;;;;6061078;28;88000;-66
2023/03/20 12:50:58;;;;;;;13.90;12.50;;;24.50;72.40;;;;;;6063025;28;89152;-66
2023/03/20 12:54:12;;;;;;;13.80;12.40;;;24.70;71.30;;;;;;6058420;28;89451;-66
2023/03/20 12:57:25;;;;;;;14.27;12.68;;;24.80;70.80;;;;;;6060034;28;89178;-66
2023/03/20 13:00:32;;;;;;;13.27;12.00;;;24.90;70.60;;;;;;6062603;28;89157;-65
2023/03/20 13:03:51;;;;;;;14.05;12.50;;;24.80;70.60;;;;;;6065793;28;87213;-66
2023/03/20 13:06:56;;;;;;;14.05;12.65;;;24.70;70.50;;;;;;6068310;28;88010;-65
2023/03/20 13:10:08;;;;;;;13.30;12.10;;;24.60;70.50;;;;;;6062661;28;89563;-65
2023/03/20 13:13:23;;;;;;;13.63;12.38;;;24.50;71.10;;;;;;6058720;28;90109;-65
2023/03/20 13:16:37;;;;;;;14.00;12.65;;;24.60;71.10;;;;;;6058732;28;89099;-65
2023/03/20 13:19:46;;;;;;;13.63;12.25;;;24.50;70.70;;;;;;6070048;28;89016;-65
2023/03/20 13:23:04;;;;;;;14.18;12.77;;;24.50;71.10;;;;;;6075512;28;89033;-65
2023/03/20 13:26:17;;;;;;;13.60;12.25;;;24.50;70.80;;;;;;6061453;28;88917;-66
2023/03/20 13:29:28;;;;;;;13.05;11.85;;;24.40;70.80;;;;;;6061733;28;88814;-65
2023/03/20 13:32:45;;;;;;;13.55;12.25;;;24.30;70.80;;;;;;6065558;28;89267;-65
2023/03/20 13:35:53;;;;;;;13.10;11.85;;;24.30;70.60;;;;;;6065745;28;88339;-65
2023/03/20 13:39:03;;;;;;;13.27;11.98;;;24.30;70.90;;;;;;6062029;28;89349;-65
2023/03/20 13:42:13;;;;;;;13.55;12.15;;;24.30;70.80;;;;;;6061812;28;89118;-65
2023/03/20 13:45:27;;;;;;;12.98;11.77;;;24.20;70.80;;;;;;6061399;28;90029;-65
2023/03/20 13:48:34;;;;;;;12.93;11.73;;;24.20;71.00;;;;;;6062186;28;89116;-69
2023/03/20 13:51:42;;;;;;;13.35;12.05;;;24.10;70.80;;;;;;6061279;28;89061;-67
2023/03/20 13:55:01;;;;;;;12.98;11.77;;;24.10;71.80;;;;;;6062165;28;89412;-67
2023/03/20 13:58:16;;;;;;;13.13;11.93;;;24.10;72.30;;;;;;6060968;28;89124;-65
2023/03/20 14:01:25;;;;;;;13.43;11.40;;;24.10;71.60;;;;;;6061306;28;88017;-65
2023/03/20 14:04:28;;;;;;;11.85;9.95;;;24.10;71.40;;;;;;6073396;28;89175;-66
2023/03/20 14:07:33;;;;;;;9.98;8.98;;;24.10;70.60;;;;;;6062298;28;88290;-65
2023/03/20 14:10:39;;;;;;;9.25;8.45;;;24.10;70.20;;;;;;6067706;28;89209;-65
2023/03/20 14:13:47;;;;;;;9.25;8.35;;;24.10;70.10;;;;;;6065377;28;89457;-65
2023/03/20 14:17:07;;;;;;;9.18;8.27;;;24.10;70.10;;;;;;6072819;28;90028;-66
2023/03/20 14:20:16;;;;;;;9.65;8.45;;;24.00;70.00;;;;;;6062609;28;87958;-65
2023/03/20 14:23:20;;;;;;;9.07;8.18;;;24.00;69.90;;;;;;6070787;28;88013;-65
2023/03/20 14:26:26;;;;;;;9.30;8.40;;;24.00;69.80;;;;;;6061983;28;89056;-65
2023/03/20 14:29:34;;;;;;;8.50;7.70;;;23.90;69.60;;;;;;6062783;28;89428;-65
2023/03/20 14:32:52;;;;;;;8.75;7.85;;;23.90;69.70;;;;;;6060787;28;89209;-65
2023/03/20 14:36:27;;;;;;;8.57;7.65;;;23.90;69.40;;;;;;6060960;28;89186;-65
2023/03/20 14:39:43;;;;;;;7.97;7.22;;;24.00;69.10;;;;;;6070344;28;88500;-65
2023/03/20 14:42:52;;;;;;;7.80;7.07;;;23.90;69.00;;;;;;6055594;28;89022;-65
2023/03/20 14:45:58;;;;;;;7.95;7.25;;;23.90;68.90;;;;;;6061772;28;88022;-65
2023/03/20 14:49:18;;;;;;;7.20;6.55;;;23.90;68.90;;;;;;6060798;28;88765;-65
2023/03/20 14:52:51;;;;;;;6.97;6.30;;;23.90;68.70;;;;;;6061938;28;89136;-65
2023/03/20 14:56:07;;;;;;;7.38;6.55;;;23.90;68.60;;;;;;6064839;28;89233;-65
2023/03/20 14:59:11;;;;;;;6.70;6.00;;;23.90;68.50;;;;;;6059217;28;89082;-65
2023/03/20 15:02:25;;;;;;;6.28;5.68;;;23.90;68.30;;;;;;6063089;28;89089;-65
2023/03/20 15:05:32;;;;;;;7.13;6.43;;;23.90;68.20;;;;;;6052306;28;89016;-66
2023/03/20 15:08:37;;;;;;;6.57;5.88;;;23.90;68.30;;;;;;6050962;28;89158;-66
2023/03/20 15:11:42;;;;;;;6.45;5.85;;;23.90;68.50;;;;;;6066085;28;87294;-66
2023/03/20 15:14:51;;;;;;;6.82;6.10;;;23.80;68.50;;;;;;6058988;28;89158;-66
2023/03/20 15:17:53;;;;;;;6.43;5.82;;;23.80;68.60;;;;;;6060179;28;88911;-68
2023/03/20 15:20:57;;;;;;;7.22;6.53;;;23.80;68.70;;;;;;6059574;28;90592;-68
2023/03/20 15:24:00;;;;;;;6.93;6.10;;;23.80;68.80;;;;;;6059996;28;88960;-68
2023/03/20 15:27:02;;;;;;;6.57;5.97;;;23.80;68.90;;;;;;6049523;28;88562;-66
2023/03/20 15:30:05;;;;;;;7.07;6.38;;;23.80;68.90;;;;;;6060090;28;90181;-65
2023/03/20 15:33:14;;;;;;;6.72;6.13;;;23.80;69.10;;;;;;6068661;28;89332;-66
2023/03/20 15:36:20;;;;;;;6.68;6.07;;;23.80;69.10;;;;;;6063984;28;89800;-65
2023/03/20 15:39:24;;;;;;;6.60;6.00;;;23.80;69.10;;;;;;6060028;28;89467;-65
2023/03/20 15:42:26;;;;;;;7.32;6.20;;;23.80;69.10;;;;;;6071755;28;88354;-66
2023/03/20 15:45:31;;;;;;;6.43;5.90;;;23.80;69.20;;;;;;6060102;28;89128;-66
2023/03/20 15:48:33;;;;;;;6.90;6.20;;;23.80;69.30;;;;;;6053459;28;89305;-65
2023/03/20 15:51:37;;;;;;;7.88;7.03;;;23.80;69.30;;;;;;6054735;28;90319;-66
2023/03/20 15:54:42;;;;;;;7.45;6.63;;;23.80;69.40;;;;;;6058085;28;89062;-67
2023/03/20 15:57:46;;;;;;;6.90;6.30;;;23.80;71.30;;;;;;6058303;28;88999;-68
2023/03/20 16:00:49;;;;;;;6.90;6.20;;;23.80;70.30;;;;;;6058182;28;89161;-65
2023/03/20 16:03:52;;;;;;;7.43;6.72;;;23.80;70.40;;;;;;6053093;28;89392;-66